createdAt,value
2023-04-01T00:00:22.663Z,10.15
2023-04-01T00:02:55.990Z,10.19
2023-04-01T00:05:29.211Z,10.13
2023-04-01T00:08:01.910Z,10.13
2023-04-01T00:10:34.881Z,9.97
2023-04-01T00:13:09.492Z,10.00
2023-04-01T00:15:42.788Z,10.02
2023-04-01T00:18:15.763Z,10.04
2023-04-01T00:20:50.816Z,10.01
2023-04-01T00:23:23.918Z,10.08
2023-04-01T00:25:56.723Z,10.01
2023-04-01T00:28:31.344Z,10.04
2023-04-01T00:31:07.337Z,9.98
2023-04-01T00:33:41.065Z,10.06
2023-04-01T00:36:15.280Z,10.08
2023-04-01T00:38:48.145Z,10.12
2023-04-01T00:41:22.366Z,10.08
2023-04-01T00:44:20.128Z,10.11
2023-04-01T00:46:54.680Z,10.02
2023-04-01T00:49:32.453Z,10.06
2023-04-01T00:52:07.624Z,10.10
2023-04-01T00:54:43.298Z,10.09
2023-04-01T00:57:22.138Z,10.10
2023-04-01T00:59:57.586Z,10.02
2023-04-01T01:02:30.945Z,10.01
2023-04-01T01:05:04.313Z,10.08
2023-04-01T01:07:45.426Z,10.04
2023-04-01T01:10:21.347Z,10.00
2023-04-01T01:13:03.708Z,10.03
2023-04-01T01:15:43.202Z,9.99
2023-04-01T01:18:21.972Z,9.91
2023-04-01T01:21:31.348Z,9.91
2023-04-01T01:24:36.875Z,9.84
2023-04-01T01:27:12.688Z,9.77
2023-04-01T01:30:08.949Z,9.74
2023-04-01T01:33:09.641Z,9.81
2023-04-01T01:35:48.330Z,9.80
2023-04-01T01:38:28.456Z,9.78
2023-04-01T01:41:14.527Z,9.84
2023-04-01T01:43:50.914Z,9.87
2023-04-01T01:46:28.421Z,9.93
2023-04-01T01:49:02.469Z,10.00
2023-04-01T01:51:36.667Z,9.89
2023-04-01T01:54:14.352Z,9.95
2023-04-01T01:56:50.838Z,9.87
2023-04-01T01:59:26.876Z,9.90
2023-04-01T02:02:01.291Z,9.81
2023-04-01T02:04:34.734Z,9.78
2023-04-01T02:07:13.815Z,9.72
2023-04-01T02:09:46.869Z,9.75
2023-04-01T02:12:25.056Z,9.81
2023-04-01T02:15:03.126Z,9.76
2023-04-01T02:17:40.686Z,9.78
2023-04-01T02:20:17.939Z,9.76
2023-04-01T02:22:55.513Z,9.76
2023-04-01T02:25:32.865Z,9.83
2023-04-01T02:28:08.468Z,9.76
2023-04-01T02:30:44.981Z,9.71
2023-04-01T02:33:19.164Z,9.71
2023-04-01T02:35:52.560Z,9.69
2023-04-01T02:38:27.043Z,9.75
2023-04-01T02:41:02.909Z,9.77
2023-04-01T02:43:36.022Z,9.73
2023-04-01T02:46:09.155Z,9.79
2023-04-01T02:48:42.092Z,9.87
2023-04-01T02:51:17.355Z,9.84
2023-04-01T02:53:52.713Z,9.75
2023-04-01T02:56:27.028Z,9.82
2023-04-01T02:59:00.403Z,9.79
2023-04-01T03:01:33.435Z,9.82
2023-04-01T03:04:06.720Z,9.77
2023-04-01T03:06:39.570Z,9.79
2023-04-01T03:09:13.807Z,9.76
2023-04-01T03:11:46.940Z,9.70
2023-04-01T03:14:20.012Z,9.74
2023-04-01T03:16:53.028Z,9.75
2023-04-01T03:19:26.357Z,9.79
2023-04-01T03:21:59.323Z,9.83
2023-04-01T03:24:33.463Z,9.82
2023-04-01T03:27:06.574Z,9.74
2023-04-01T03:29:39.682Z,9.87
2023-04-01T03:32:12.583Z,9.90
2023-04-01T03:34:45.737Z,9.80
2023-04-01T03:37:18.590Z,9.79
2023-04-01T03:39:53.110Z,9.85
2023-04-01T03:42:26.846Z,9.86
2023-04-01T03:45:00.553Z,9.74
2023-04-01T03:47:33.424Z,9.72
2023-04-01T03:50:08.638Z,9.73
2023-04-01T03:52:41.725Z,9.68
2023-04-01T03:55:16.464Z,9.69
2023-04-01T03:57:49.552Z,9.74
2023-04-01T04:00:24.980Z,9.78
2023-04-01T04:03:02.029Z,9.75
2023-04-01T04:05:38.739Z,9.67
2023-04-01T04:08:11.622Z,9.69
2023-04-01T04:10:46.195Z,9.66
2023-04-01T04:13:19.042Z,9.64
2023-04-01T04:15:57.331Z,9.70
2023-04-01T04:18:30.350Z,9.63
2023-04-01T04:21:03.435Z,9.55
2023-04-01T04:23:38.243Z,9.36
2023-04-01T04:26:15.448Z,9.44
2023-04-01T04:28:52.056Z,9.35
2023-04-01T04:31:27.251Z,9.44
2023-04-01T04:34:02.747Z,9.41
2023-04-01T04:36:39.510Z,9.47
2023-04-01T04:39:12.595Z,9.43
2023-04-01T04:41:50.361Z,9.40
2023-04-01T04:44:24.071Z,9.37
2023-04-01T04:46:58.489Z,9.45
2023-04-01T04:49:31.934Z,9.48
2023-04-01T04:52:06.110Z,9.47
2023-04-01T04:54:39.473Z,9.33
2023-04-01T04:57:15.719Z,9.31
2023-04-01T04:59:58.878Z,9.36
2023-04-01T05:02:51.244Z,9.35
2023-04-01T05:05:24.427Z,9.46
2023-04-01T05:07:57.312Z,9.40
2023-04-01T05:10:30.431Z,9.39
2023-04-01T05:13:04.766Z,9.57
2023-04-01T05:15:38.277Z,9.53
2023-04-01T05:18:11.159Z,9.48
2023-04-01T05:20:48.914Z,9.49
2023-04-01T05:23:23.547Z,9.58
2023-04-01T05:25:58.030Z,9.69
2023-04-01T05:28:32.566Z,9.58
2023-04-01T05:31:06.465Z,9.73
2023-04-01T05:33:45.657Z,9.75
2023-04-01T05:36:18.953Z,9.85
2023-04-01T05:38:52.046Z,9.89
2023-04-01T05:41:26.271Z,9.76
2023-04-01T05:44:00.503Z,9.81
2023-04-01T05:46:58.837Z,9.78
2023-04-01T05:49:34.967Z,9.82
2023-04-01T05:52:08.995Z,9.81
2023-04-01T05:54:42.998Z,9.86
2023-04-01T05:57:16.286Z,9.98
2023-04-01T05:59:50.701Z,9.87
2023-04-01T06:02:23.910Z,9.82
2023-04-01T06:05:06.030Z,9.87
2023-04-01T06:07:38.883Z,9.82
2023-04-01T06:10:15.299Z,9.93
2023-04-01T06:12:58.247Z,9.79
2023-04-01T06:15:40.414Z,9.85
2023-04-01T06:18:43.705Z,9.81
2023-04-01T06:21:35.980Z,9.75
2023-04-01T06:24:33.039Z,9.69
2023-04-01T06:27:14.724Z,9.64
2023-04-01T06:30:13.021Z,9.62
2023-04-01T06:33:08.640Z,9.74
2023-04-01T06:35:59.041Z,9.82
2023-04-01T06:38:46.158Z,9.74
2023-04-01T06:41:42.327Z,9.65
2023-04-01T06:44:22.610Z,9.66
2023-04-01T06:47:27.363Z,9.74
2023-04-01T06:50:28.694Z,9.67
2023-04-01T06:53:23.675Z,9.84
2023-04-01T06:56:19.287Z,10.08
2023-04-01T06:59:03.901Z,10.06
2023-04-01T07:01:41.556Z,10.19
2023-04-01T07:04:21.781Z,10.08
2023-04-01T07:07:00.656Z,9.97
2023-04-01T07:09:37.013Z,10.12
2023-04-01T07:12:38.953Z,9.97
2023-04-01T07:16:00.635Z,9.94
2023-04-01T07:18:43.650Z,10.07
2023-04-01T07:21:26.145Z,10.20
2023-04-01T07:24:06.909Z,10.35
2023-04-01T07:26:46.930Z,10.52
2023-04-01T07:29:23.437Z,10.45
2023-04-01T07:32:31.547Z,10.56
2023-04-01T07:35:17.172Z,10.56
2023-04-01T07:38:07.568Z,10.38
2023-04-01T07:40:50.374Z,10.35
2023-04-01T07:43:57.920Z,10.11
2023-04-01T07:46:52.103Z,10.35
2023-04-01T07:49:32.763Z,10.21
2023-04-01T07:52:14.940Z,10.47
2023-04-01T07:54:56.077Z,10.33
2023-04-01T07:57:39.146Z,10.17
2023-04-01T08:00:19.469Z,10.04
2023-04-01T08:03:23.534Z,10.05
2023-04-01T08:06:01.219Z,9.79
2023-04-01T08:08:47.754Z,9.96
2023-04-01T08:11:59.295Z,10.06
2023-04-01T08:15:13.260Z,10.02
2023-04-01T08:18:16.499Z,9.88
2023-04-01T08:20:54.894Z,9.75
2023-04-01T08:23:32.314Z,9.91
2023-04-01T08:26:12.718Z,9.97
2023-04-01T08:28:54.425Z,10.02
2023-04-01T08:31:38.057Z,10.15
2023-04-01T08:34:17.448Z,10.05
2023-04-01T08:36:56.372Z,9.91
2023-04-01T08:39:34.027Z,9.86
2023-04-01T08:42:50.337Z,9.89
2023-04-01T08:45:43.722Z,9.80
2023-04-01T08:48:50.987Z,9.92
2023-04-01T08:52:06.107Z,9.81
2023-04-01T08:55:06.924Z,9.55
2023-04-01T08:58:21.118Z,9.72
2023-04-01T09:01:28.600Z,9.77
2023-04-01T09:04:38.846Z,9.83
2023-04-01T09:07:31.795Z,9.60
2023-04-01T09:10:25.134Z,9.54
2023-04-01T09:13:13.491Z,9.52
2023-04-01T09:16:05.742Z,9.60
2023-04-01T09:19:10.107Z,9.65
2023-04-01T09:22:01.847Z,9.77
2023-04-01T09:24:46.205Z,9.86
2023-04-01T09:27:29.509Z,9.86
2023-04-01T09:30:33.871Z,9.84
2023-04-01T09:33:42.402Z,10.00
2023-04-01T09:36:27.055Z,10.01
2023-04-01T09:39:12.323Z,10.05
2023-04-01T09:41:59.358Z,10.05
2023-04-01T09:44:46.887Z,9.99
2023-04-01T09:47:39.338Z,9.79
2023-04-01T09:50:29.711Z,9.75
2023-04-01T09:53:15.766Z,9.71
2023-04-01T09:56:16.836Z,9.82
2023-04-01T09:59:17.870Z,9.74
2023-04-01T10:02:37.101Z,10.08
2023-04-01T10:05:53.155Z,10.27
2023-04-01T10:09:20.718Z,10.30
2023-04-01T10:12:22.365Z,10.60
2023-04-01T10:15:31.110Z,10.43
2023-04-01T10:18:40.223Z,10.67
2023-04-01T10:21:58.879Z,10.57
2023-04-01T10:25:19.596Z,10.66
2023-04-01T10:28:16.511Z,10.34
2023-04-01T10:31:45.278Z,10.30
2023-04-01T10:34:57.923Z,10.33
2023-04-01T10:37:53.002Z,10.30
2023-04-01T10:40:54.506Z,10.28
2023-04-01T10:44:34.910Z,10.62
2023-04-01T10:47:50.318Z,10.66
2023-04-01T10:50:51.755Z,10.46
2023-04-01T10:53:44.216Z,10.61
2023-04-01T10:56:52.061Z,10.64
2023-04-01T11:00:16.509Z,10.75
2023-04-01T11:04:00.984Z,10.65
2023-04-01T11:07:23.566Z,10.69
2023-04-01T11:10:32.483Z,10.98
2023-04-01T11:13:41.467Z,10.88
2023-04-01T11:16:45.641Z,10.77
2023-04-01T11:20:16.376Z,10.84
2023-04-01T11:23:15.388Z,10.71
2023-04-01T11:26:07.093Z,10.88
2023-04-01T11:29:40.274Z,10.97
2023-04-01T11:32:45.994Z,10.93
2023-04-01T11:35:37.280Z,10.80
2023-04-01T11:38:24.565Z,10.86
2023-04-01T11:41:28.492Z,10.82
2023-04-01T11:44:22.419Z,10.94
2023-04-01T11:47:22.087Z,10.81
2023-04-01T11:50:11.455Z,10.72
2023-04-01T11:53:00.796Z,10.74
2023-04-01T11:55:45.287Z,10.69
2023-04-01T11:58:34.358Z,10.82
2023-04-01T12:01:22.325Z,10.80
2023-04-01T12:04:29.293Z,10.63
2023-04-01T12:07:14.209Z,10.79
2023-04-01T12:09:55.400Z,10.94
2023-04-01T12:12:36.824Z,11.10
2023-04-01T12:15:22.577Z,11.02
2023-04-01T12:18:05.273Z,10.88
2023-04-01T12:20:47.750Z,10.87
2023-04-01T12:23:50.985Z,11.10
2023-04-01T12:26:49.650Z,11.17
2023-04-01T12:29:46.694Z,11.26
2023-04-01T12:32:31.948Z,11.37
2023-04-01T12:35:18.376Z,11.46
2023-04-01T12:38:00.290Z,11.47
2023-04-01T12:40:53.619Z,11.61
2023-04-01T12:43:51.808Z,11.36
2023-04-01T12:46:33.656Z,11.40
2023-04-01T12:49:30.246Z,11.37
2023-04-01T12:52:13.173Z,11.51
2023-04-01T12:55:10.945Z,11.29
2023-04-01T12:58:02.887Z,10.91
2023-04-01T13:01:07.785Z,11.12
2023-04-01T13:04:05.927Z,11.22
2023-04-01T13:07:09.808Z,11.23
2023-04-01T13:09:52.601Z,10.78
2023-04-01T13:12:49.071Z,10.72
2023-04-01T13:15:35.977Z,10.79
2023-04-01T13:18:22.379Z,10.67
2023-04-01T13:21:07.985Z,10.87
2023-04-01T13:23:57.351Z,10.69
2023-04-01T13:26:37.392Z,10.86
2023-04-01T13:29:16.449Z,10.63
2023-04-01T13:32:03.330Z,10.68
2023-04-01T13:34:50.908Z,10.59
2023-04-01T13:37:36.125Z,10.70
2023-04-01T13:40:28.031Z,10.66
2023-04-01T13:43:05.978Z,10.52
2023-04-01T13:45:52.464Z,10.54
2023-04-01T13:48:43.089Z,10.63
2023-04-01T13:51:31.851Z,10.48
2023-04-01T13:54:42.902Z,10.67
2023-04-01T13:57:36.397Z,10.76
2023-04-01T14:00:35.349Z,10.80
2023-04-01T14:03:27.339Z,10.85
2023-04-01T14:06:12.333Z,10.89
2023-04-01T14:09:01.177Z,11.02
2023-04-01T14:11:42.119Z,11.08
2023-04-01T14:14:29.424Z,11.07
2023-04-01T14:17:36.929Z,11.07
2023-04-01T14:20:32.752Z,11.20
2023-04-01T14:23:27.954Z,10.90
2023-04-01T14:26:12.582Z,11.02
2023-04-01T14:28:53.804Z,11.10
2023-04-01T14:31:40.546Z,11.15
2023-04-01T14:34:33.464Z,11.24
2023-04-01T14:37:22.197Z,11.19
2023-04-01T14:40:29.843Z,10.94
2023-04-01T14:43:27.710Z,10.90
2023-04-01T14:46:34.802Z,10.73
2023-04-01T14:49:21.539Z,10.71
2023-04-01T14:51:55.355Z,10.63
2023-04-01T14:54:36.410Z,10.73
2023-04-01T14:57:16.109Z,10.57
2023-04-01T14:59:52.939Z,10.59
2023-04-01T15:02:46.738Z,10.40
2023-04-01T15:05:34.078Z,10.34
2023-04-01T15:08:19.162Z,10.32
2023-04-01T15:11:07.872Z,10.26
2023-04-01T15:14:28.334Z,10.20
2023-04-01T15:17:15.165Z,10.29
2023-04-01T15:20:07.475Z,10.34
2023-04-01T15:23:00.854Z,10.26
2023-04-01T15:25:45.315Z,10.26
2023-04-01T15:28:31.920Z,10.23
2023-04-01T15:31:14.877Z,10.26
2023-04-01T15:33:56.369Z,10.12
2023-04-01T15:36:43.135Z,10.25
2023-04-01T15:39:22.091Z,10.13
2023-04-01T15:42:13.763Z,10.11
2023-04-01T15:45:05.770Z,10.04
2023-04-01T15:47:44.945Z,10.14
2023-04-01T15:50:55.626Z,10.25
2023-04-01T15:53:33.809Z,10.34
2023-04-01T15:56:24.627Z,10.30
2023-04-01T15:59:10.026Z,10.50
2023-04-01T16:01:48.881Z,10.47
2023-04-01T16:04:39.450Z,10.56
2023-04-01T16:07:19.940Z,10.50
2023-04-01T16:10:08.876Z,10.38
2023-04-01T16:12:55.102Z,10.41
2023-04-01T16:15:37.142Z,10.37
2023-04-01T16:18:37.478Z,10.31
2023-04-01T16:21:17.002Z,10.33
2023-04-01T16:23:55.609Z,10.27
2023-04-01T16:26:37.224Z,10.12
2023-04-01T16:29:14.465Z,10.18
2023-04-01T16:31:53.105Z,10.11
2023-04-01T16:34:32.704Z,10.04
2023-04-01T16:37:13.940Z,10.06
2023-04-01T16:39:52.589Z,10.11
2023-04-01T16:42:37.520Z,10.18
2023-04-01T16:45:25.512Z,10.43
2023-04-01T16:48:02.331Z,10.26
2023-04-01T16:50:50.483Z,10.30
2023-04-01T16:53:39.510Z,10.24
2023-04-01T16:56:16.356Z,10.29
2023-04-01T16:59:04.721Z,10.33
2023-04-01T17:01:45.688Z,10.33
2023-04-01T17:04:26.340Z,10.33
2023-04-01T17:07:03.414Z,10.12
2023-04-01T17:09:51.936Z,10.17
2023-04-01T17:12:30.166Z,10.11
2023-04-01T17:15:14.205Z,10.04
2023-04-01T17:17:54.129Z,9.97
2023-04-01T17:20:40.198Z,9.95
2023-04-01T17:23:20.302Z,9.89
2023-04-01T17:26:03.370Z,9.91
2023-04-01T17:28:53.396Z,9.96
2023-04-01T17:31:40.812Z,9.94
2023-04-01T17:34:31.335Z,9.92
2023-04-01T17:37:21.817Z,9.90
2023-04-01T17:40:03.487Z,9.83
2023-04-01T17:42:44.850Z,9.85
2023-04-01T17:45:26.733Z,9.84
2023-04-01T17:48:12.379Z,9.89
2023-04-01T17:50:54.305Z,9.85
2023-04-01T17:53:41.320Z,9.78
2023-04-01T17:56:26.569Z,9.86
2023-04-01T17:59:18.445Z,9.71
2023-04-01T18:02:04.392Z,9.71
2023-04-01T18:05:24.344Z,9.89
2023-04-01T18:08:14.553Z,9.82
2023-04-01T18:11:07.849Z,9.77
2023-04-01T18:14:11.798Z,9.86
2023-04-01T18:17:05.380Z,9.83
2023-04-01T18:19:55.649Z,9.92
2023-04-01T18:22:42.447Z,9.83
2023-04-01T18:25:26.793Z,9.81
2023-04-01T18:28:24.364Z,9.75
2023-04-01T18:31:11.204Z,9.77
2023-04-01T18:33:58.863Z,9.80
2023-04-01T18:36:43.187Z,9.82
2023-04-01T18:39:26.557Z,9.83
2023-04-01T18:42:10.779Z,9.79
2023-04-01T18:44:52.830Z,9.98
2023-04-01T18:47:45.049Z,9.82
2023-04-01T18:50:30.004Z,9.90
2023-04-01T18:53:24.554Z,9.84
2023-04-01T18:56:04.962Z,9.75
2023-04-01T18:58:50.372Z,9.79
2023-04-01T19:01:35.981Z,9.72
2023-04-01T19:04:22.855Z,9.79
2023-04-01T19:07:03.281Z,9.72
2023-04-01T19:09:48.169Z,9.65
2023-04-01T19:12:39.572Z,9.70
2023-04-01T19:15:29.572Z,9.71
2023-04-01T19:18:30.198Z,9.65
2023-04-01T19:21:13.809Z,9.70
2023-04-01T19:24:27.434Z,9.83
2023-04-01T19:27:17.230Z,9.80
2023-04-01T19:30:17.015Z,9.83
2023-04-01T19:33:04.077Z,9.76
2023-04-01T19:35:47.455Z,9.85
2023-04-01T19:38:35.992Z,9.86
2023-04-01T19:41:28.779Z,9.80
2023-04-01T19:44:20.713Z,9.81
2023-04-01T19:47:08.939Z,9.80
2023-04-01T19:50:00.881Z,9.66
2023-04-01T19:52:41.622Z,9.70
2023-04-01T19:55:34.242Z,9.65
2023-04-01T19:58:22.058Z,9.70
2023-04-01T20:01:01.321Z,9.66
2023-04-01T20:03:46.195Z,9.68
2023-04-01T20:06:34.197Z,9.66
2023-04-01T20:09:36.154Z,9.75
2023-04-01T20:12:27.200Z,9.61
2023-04-01T20:15:22.358Z,9.66
2023-04-01T20:18:02.090Z,9.75
2023-04-01T20:20:41.042Z,9.62
2023-04-01T20:23:35.017Z,9.58
2023-04-01T20:26:14.366Z,9.75
2023-04-01T20:29:21.015Z,9.64
2023-04-01T20:32:08.614Z,9.49
2023-04-01T20:35:08.608Z,9.67
2023-04-01T20:37:53.764Z,9.52
2023-04-01T20:40:37.871Z,9.54
2023-04-01T20:43:42.684Z,9.50
2023-04-01T20:46:25.659Z,9.52
2023-04-01T20:49:42.214Z,9.62
2023-04-01T20:52:27.565Z,9.58
2023-04-01T20:55:42.603Z,9.66
2023-04-01T20:58:27.629Z,9.45
2023-04-01T21:01:15.570Z,9.45
2023-04-01T21:04:12.211Z,9.40
2023-04-01T21:07:03.255Z,9.42
2023-04-01T21:09:57.931Z,9.39
2023-04-01T21:12:45.219Z,9.43
2023-04-01T21:15:40.275Z,9.36
2023-04-01T21:18:47.335Z,9.40
2023-04-01T21:21:43.943Z,9.35
2023-04-01T21:24:41.939Z,9.46
2023-04-01T21:27:18.521Z,9.31
2023-04-01T21:29:57.963Z,9.25
2023-04-01T21:32:45.827Z,9.26
2023-04-01T21:35:28.297Z,9.28
2023-04-01T21:38:26.259Z,9.23
2023-04-01T21:41:07.211Z,9.27
2023-04-01T21:43:58.321Z,9.36
2023-04-01T21:47:02.786Z,9.28
2023-04-01T21:49:48.392Z,9.37
2023-04-01T21:52:47.924Z,9.37
2023-04-01T21:55:52.957Z,9.31
2023-04-01T21:58:48.180Z,9.33
2023-04-01T22:01:34.196Z,9.34
2023-04-01T22:04:44.393Z,9.13
2023-04-01T22:07:17.821Z,9.25
2023-04-01T22:09:54.948Z,9.26
2023-04-01T22:12:31.859Z,9.10
2023-04-01T22:15:06.025Z,9.23
2023-04-01T22:17:40.878Z,9.22
2023-04-01T22:20:22.367Z,9.31
2023-04-01T22:23:00.645Z,9.21
2023-04-01T22:25:35.927Z,9.16
2023-04-01T22:28:09.669Z,9.10
2023-04-01T22:30:43.477Z,9.11
2023-04-01T22:33:18.959Z,9.22
2023-04-01T22:35:56.721Z,9.08
2023-04-01T22:38:41.265Z,9.31
2023-04-01T22:41:22.102Z,9.14
2023-04-01T22:43:59.080Z,9.09
2023-04-01T22:46:50.150Z,9.03
2023-04-01T22:49:23.819Z,9.10
2023-04-01T22:51:57.147Z,9.10
2023-04-01T22:54:30.066Z,9.34
2023-04-01T22:57:01.988Z,9.06
2023-04-01T22:59:37.159Z,9.18
2023-04-01T23:02:12.893Z,9.28
2023-04-01T23:04:44.880Z,9.23
2023-04-01T23:07:36.267Z,9.30
2023-04-01T23:10:07.832Z,9.17
2023-04-01T23:12:36.838Z,9.31
2023-04-01T23:15:07.067Z,9.36
2023-04-01T23:18:05.094Z,9.24
2023-04-01T23:20:52.699Z,9.11
2023-04-01T23:23:32.788Z,9.20
2023-04-01T23:26:08.408Z,9.20
2023-04-01T23:28:45.579Z,9.13
2023-04-01T23:31:31.954Z,9.19
2023-04-01T23:34:02.283Z,9.16
2023-04-01T23:36:31.577Z,9.10
2023-04-01T23:39:08.411Z,9.16
2023-04-01T23:41:36.785Z,9.17
2023-04-01T23:44:07.857Z,9.44
2023-04-01T23:46:39.576Z,9.42
2023-04-01T23:49:12.906Z,9.36
2023-04-01T23:51:50.306Z,9.61
2023-04-01T23:54:22.731Z,9.29
2023-04-01T23:56:54.518Z,9.33
2023-04-01T23:59:29.389Z,9.39
